Time;durP1;ratioP1;P1;durP2;ratioP2;P2;SDS_P1;SDS_P2;PMS_P1;PMS_P2;Temp;Humidity;BMP_temperature;BMP_pressure;BME280_temperature;BME280_humidity;BME280_pressure;Samples;Min_cycle;Max_cycle;Signal;HPM_P1;HPM_P2
2021/12/04 00:02:26;;;;;;;112.32;29.67;;;;;;;;;;5098339;28;20028;-67
2021/12/04 00:04:55;;;;;;;134.50;36.55;;;;;;;;;;5098191;28;20081;-67
2021/12/04 00:07:23;;;;;;;123.97;35.70;;;;;;;;;;5097201;28;20404;-67
2021/12/04 00:09:57;;;;;;;108.93;30.08;;;;;;;;;;5098324;28;20075;-67
2021/12/04 00:12:25;;;;;;;117.78;31.30;;;;;;;;;;5098457;28;20036;-67
2021/12/04 00:14:52;;;;;;;94.80;27.60;;;;;;;;;;5098184;28;20027;-67
2021/12/04 00:17:20;;;;;;;100.55;29.92;;;;;;;;;;5096914;28;20194;-68
2021/12/04 00:19:50;;;;;;;116.70;30.75;;;;;;;;;;5097983;28;20028;-67
2021/12/04 00:22:18;;;;;;;174.40;55.20;;;;;;;;;;5097938;28;20497;-67
2021/12/04 00:24:46;;;;;;;142.50;41.63;;;;;;;;;;5097794;28;20358;-67
2021/12/04 00:27:13;;;;;;;125.97;35.90;;;;;;;;;;5097912;28;20354;-67
2021/12/04 00:29:41;;;;;;;125.45;37.22;;;;;;;;;;5097264;28;20028;-67
2021/12/04 00:32:19;;;;;;;113.45;36.15;;;;;;;;;;5096590;28;20016;-67
2021/12/04 00:34:53;;;;;;;151.48;46.35;;;;;;;;;;5097617;28;20024;-66
2021/12/04 00:51:12;;;;;;;106.78;32.25;;;;;;;;;;5097863;28;20051;-68
2021/12/04 00:53:39;;;;;;;121.53;35.22;;;;;;;;;;5096298;28;20023;-68
2021/12/04 00:56:06;;;;;;;112.45;32.70;;;;;;;;;;5097192;28;20054;-68
2021/12/04 00:58:32;;;;;;;108.80;31.60;;;;;;;;;;5097437;28;20099;-68
2021/12/04 01:01:00;;;;;;;91.78;30.20;;;;;;;;;;5097362;28;20374;-68
2021/12/04 01:03:27;;;;;;;114.13;30.23;;;;;;;;;;5096157;28;20024;-67
2021/12/04 01:05:55;;;;;;;122.20;33.85;;;;;;;;;;5097222;28;20063;-67
2021/12/04 01:08:22;;;;;;;120.72;32.05;;;;;;;;;;5097285;28;20372;-68
2021/12/04 01:10:50;;;;;;;104.28;31.58;;;;;;;;;;5097246;28;20020;-67
2021/12/04 01:13:18;;;;;;;128.73;36.58;;;;;;;;;;5096824;28;20017;-67
2021/12/04 01:15:45;;;;;;;102.28;30.15;;;;;;;;;;5096938;28;20051;-67
2021/12/04 01:18:13;;;;;;;112.30;31.58;;;;;;;;;;5095980;28;20055;-67
2021/12/04 01:20:43;;;;;;;107.22;30.25;;;;;;;;;;5097014;28;20073;-67
2021/12/04 01:23:11;;;;;;;107.03;31.58;;;;;;;;;;5095907;28;20482;-67
2021/12/04 01:25:39;;;;;;;111.40;31.15;;;;;;;;;;5096741;28;20106;-67
2021/12/04 01:28:07;;;;;;;102.57;29.70;;;;;;;;;;5096357;28;20012;-68
2021/12/04 01:30:36;;;;;;;127.35;32.58;;;;;;;;;;5095207;28;20020;-68
2021/12/04 01:33:04;;;;;;;102.13;32.97;;;;;;;;;;5095618;28;20294;-68
2021/12/04 01:35:32;;;;;;;113.32;33.95;;;;;;;;;;5096707;28;20024;-68
2021/12/04 01:37:59;;;;;;;162.75;41.33;;;;;;;;;;5096518;28;20442;-68
2021/12/04 01:40:27;;;;;;;123.97;37.05;;;;;;;;;;5095629;28;20028;-67
2021/12/04 01:42:55;;;;;;;117.85;39.10;;;;;;;;;;5095258;28;20031;-68
2021/12/04 01:45:23;;;;;;;155.82;45.55;;;;;;;;;;5096294;28;20426;-67
2021/12/04 01:47:50;;;;;;;145.02;43.08;;;;;;;;;;5096302;28;20154;-67
2021/12/04 01:50:19;;;;;;;131.32;41.40;;;;;;;;;;5096311;28;20020;-67
2021/12/04 01:52:46;;;;;;;163.63;46.42;;;;;;;;;;5094968;28;20032;-67
2021/12/04 01:55:14;;;;;;;151.35;46.58;;;;;;;;;;5096223;28;20035;-67
2021/12/04 01:57:40;;;;;;;155.93;43.20;;;;;;;;;;5095972;28;20066;-67
2021/12/04 02:00:08;;;;;;;168.63;46.10;;;;;;;;;;5096452;28;20050;-67
2021/12/04 02:02:36;;;;;;;154.90;44.47;;;;;;;;;;5096005;28;20050;-68
2021/12/04 02:05:03;;;;;;;162.43;42.95;;;;;;;;;;5095871;28;20039;-68
2021/12/04 02:07:31;;;;;;;161.98;44.10;;;;;;;;;;5095953;28;20095;-67
2021/12/04 02:09:59;;;;;;;163.95;44.47;;;;;;;;;;5096114;28;20012;-68
2021/12/04 02:12:26;;;;;;;203.63;47.70;;;;;;;;;;5096309;28;20031;-68
2021/12/04 02:14:53;;;;;;;160.80;44.42;;;;;;;;;;5096159;28;20424;-68
2021/12/04 02:17:21;;;;;;;170.00;44.55;;;;;;;;;;5094938;28;20081;-68
2021/12/04 02:19:57;;;;;;;171.38;44.35;;;;;;;;;;5096190;28;20024;-68
2021/12/04 02:22:24;;;;;;;171.10;44.67;;;;;;;;;;5096582;28;20088;-67
2021/12/04 02:24:51;;;;;;;161.95;45.65;;;;;;;;;;5096745;28;20039;-67
2021/12/04 02:27:19;;;;;;;172.05;46.42;;;;;;;;;;5101999;28;20320;-67
2021/12/04 02:29:47;;;;;;;154.13;51.28;;;;;;;;;;5102241;28;20417;-67
2021/12/04 02:32:16;;;;;;;536.88;218.70;;;;;;;;;;5100832;28;20121;-67
2021/12/04 02:34:44;;;;;;;330.38;145.48;;;;;;;;;;5100220;28;20020;-67
2021/12/04 02:37:11;;;;;;;738.80;436.33;;;;;;;;;;5100483;28;20047;-67
2021/12/04 02:39:44;;;;;;;397.02;178.32;;;;;;;;;;5096372;28;20027;-68
2021/12/04 02:42:21;;;;;;;164.93;56.63;;;;;;;;;;5096373;28;20427;-67
2021/12/04 02:44:49;;;;;;;154.43;49.83;;;;;;;;;;5095811;28;20031;-67
2021/12/04 02:47:17;;;;;;;143.90;43.17;;;;;;;;;;5096738;28;20020;-67
2021/12/04 02:49:45;;;;;;;154.85;39.75;;;;;;;;;;5096164;28;20051;-67
2021/12/04 02:52:14;;;;;;;130.07;39.10;;;;;;;;;;5097325;28;20020;-67
2021/12/04 02:54:42;;;;;;;133.55;46.25;;;;;;;;;;5099000;28;20024;-67
2021/12/04 02:57:10;;;;;;;199.75;82.43;;;;;;;;;;5099485;28;20036;-68
2021/12/04 02:59:38;;;;;;;145.10;39.45;;;;;;;;;;5098496;28;20088;-67
2021/12/04 03:02:06;;;;;;;132.85;37.08;;;;;;;;;;5098215;28;20036;-68
2021/12/04 03:04:33;;;;;;;147.75;34.58;;;;;;;;;;5103405;28;20058;-68
2021/12/04 03:07:01;;;;;;;123.93;36.35;;;;;;;;;;5099477;28;20099;-68
2021/12/04 03:09:28;;;;;;;136.13;37.85;;;;;;;;;;5099273;28;20031;-69
2021/12/04 03:11:56;;;;;;;126.35;38.78;;;;;;;;;;5102299;28;20035;-69
2021/12/04 03:14:27;;;;;;;129.20;33.33;;;;;;;;;;5101755;28;20017;-72
2021/12/04 03:16:59;;;;;;;132.70;31.95;;;;;;;;;;5101876;28;20012;-68
2021/12/04 03:19:27;;;;;;;148.07;28.83;;;;;;;;;;5101868;28;20050;-69
2021/12/04 03:21:55;;;;;;;128.98;31.27;;;;;;;;;;5103136;28;20020;-69
2021/12/04 03:24:24;;;;;;;137.52;27.65;;;;;;;;;;5102422;28;20024;-69
2021/12/04 03:26:52;;;;;;;141.50;27.70;;;;;;;;;;5101300;28;20412;-68
2021/12/04 03:29:23;;;;;;;123.55;27.58;;;;;;;;;;5100808;28;20073;-70
2021/12/04 03:40:21;;;;;;;151.55;36.42;;;;;;;;;;5100893;28;20122;-68
2021/12/04 03:42:48;;;;;;;116.68;30.00;;;;;;;;;;5100405;28;20031;-68
2021/12/04 03:45:16;;;;;;;132.75;29.35;;;;;;;;;;5098996;28;20445;-69
2021/12/04 03:47:47;;;;;;;126.47;28.80;;;;;;;;;;5099574;28;20044;-69
2021/12/04 03:50:15;;;;;;;126.57;29.00;;;;;;;;;;5099521;28;20016;-68
2021/12/04 03:52:43;;;;;;;129.95;29.30;;;;;;;;;;5099355;28;20046;-68
2021/12/04 03:55:15;;;;;;;135.27;28.65;;;;;;;;;;5100660;28;20024;-68
2021/12/04 03:57:45;;;;;;;117.80;26.65;;;;;;;;;;5098433;28;20602;-68
2021/12/04 04:00:14;;;;;;;122.53;26.67;;;;;;;;;;5099358;28;20084;-68
2021/12/04 04:02:41;;;;;;;140.15;29.55;;;;;;;;;;5099216;28;20050;-67
2021/12/04 04:05:09;;;;;;;118.50;28.25;;;;;;;;;;5096939;28;20031;-68
2021/12/04 04:07:37;;;;;;;122.50;27.92;;;;;;;;;;5098573;28;20038;-68
2021/12/04 04:10:06;;;;;;;139.05;28.98;;;;;;;;;;5099852;28;20020;-66
2021/12/04 04:12:33;;;;;;;124.93;30.02;;;;;;;;;;5100056;28;20028;-67
2021/12/04 04:15:03;;;;;;;120.47;28.65;;;;;;;;;;5100893;28;20024;-68
2021/12/04 04:17:32;;;;;;;143.05;32.97;;;;;;;;;;5101221;28;20020;-67
2021/12/04 04:20:03;;;;;;;120.30;29.15;;;;;;;;;;5099017;28;20024;-67
2021/12/04 04:22:31;;;;;;;133.07;29.05;;;;;;;;;;5099038;28;20028;-67
2021/12/04 04:25:00;;;;;;;126.63;28.50;;;;;;;;;;5099379;28;20028;-67
2021/12/04 04:27:27;;;;;;;128.00;29.05;;;;;;;;;;5099785;28;20113;-67
2021/12/04 04:29:55;;;;;;;120.32;30.85;;;;;;;;;;5098135;28;20063;-67
2021/12/04 04:32:24;;;;;;;124.30;35.08;;;;;;;;;;5098317;28;20077;-67
2021/12/04 04:34:54;;;;;;;133.88;36.30;;;;;;;;;;5098009;28;20036;-68
2021/12/04 05:02:24;;;;;;;124.75;30.67;;;;;;;;;;5056509;28;20036;-68
2021/12/04 05:10:23;;;;;;;128.77;29.70;;;;;;;;;;5055965;28;20025;-69
2021/12/04 05:12:57;;;;;;;117.22;28.42;;;;;;;;;;5055226;28;20025;-69
2021/12/04 05:18:33;;;;;;;120.60;29.75;;;;;;;;;;5055252;28;20029;-69
2021/12/04 05:21:05;;;;;;;131.15;31.80;;;;;;;;;;5055210;28;20044;-69
2021/12/04 05:23:42;;;;;;;148.98;39.03;;;;;;;;;;5038723;28;20025;-68
2021/12/04 05:26:12;;;;;;;148.93;39.55;;;;;;;;;;5037981;28;20033;-69
2021/12/04 05:28:39;;;;;;;133.32;36.63;;;;;;;;;;5054777;28;20360;-69
2021/12/04 05:31:07;;;;;;;146.25;37.63;;;;;;;;;;5055088;28;20052;-68
2021/12/04 05:33:35;;;;;;;149.40;40.80;;;;;;;;;;5040764;28;20073;-68
2021/12/04 05:36:03;;;;;;;133.60;36.90;;;;;;;;;;5055599;28;20033;-69
2021/12/04 05:38:30;;;;;;;149.02;38.65;;;;;;;;;;5070719;28;20036;-69
2021/12/04 05:40:58;;;;;;;185.68;43.63;;;;;;;;;;5100665;28;20032;-68
2021/12/04 05:43:26;;;;;;;166.50;42.58;;;;;;;;;;5098455;28;20027;-67
2021/12/04 05:46:39;;;;;;;153.95;40.35;;;;;;;;;;5099263;28;20034;-67
2021/12/04 05:53:55;;;;;;;411.65;151.68;;;;;;;;;;5097763;28;20028;-69
2021/12/04 05:56:21;;;;;;;176.73;51.97;;;;;;;;;;5099308;28;20090;-68
2021/12/04 05:58:48;;;;;;;158.32;48.65;;;;;;;;;;5098661;28;20028;-68
2021/12/04 06:01:16;;;;;;;158.93;46.35;;;;;;;;;;5098807;28;20070;-68
2021/12/04 06:03:44;;;;;;;150.63;41.03;;;;;;;;;;5097238;28;20028;-68
2021/12/04 06:06:12;;;;;;;153.45;44.60;;;;;;;;;;5096996;28;20324;-68
2021/12/04 06:08:41;;;;;;;146.15;44.45;;;;;;;;;;5098038;28;20020;-68
2021/12/04 06:11:08;;;;;;;147.27;42.70;;;;;;;;;;5098227;28;20020;-69
2021/12/04 06:13:36;;;;;;;155.23;45.42;;;;;;;;;;5097627;28;20031;-68
2021/12/04 06:16:04;;;;;;;158.20;43.60;;;;;;;;;;5098478;28;20031;-69
2021/12/04 06:18:32;;;;;;;164.88;47.15;;;;;;;;;;5101684;28;20024;-69
2021/12/04 06:23:47;;;;;;;159.50;45.10;;;;;;;;;;5099446;28;20047;-69
2021/12/04 06:26:15;;;;;;;145.90;45.70;;;;;;;;;;5098913;28;20031;-70
2021/12/04 06:28:42;;;;;;;158.00;47.63;;;;;;;;;;5099218;28;20016;-69
2021/12/04 06:31:11;;;;;;;181.60;47.78;;;;;;;;;;5099063;28;20024;-68
2021/12/04 06:33:40;;;;;;;173.07;48.08;;;;;;;;;;5095509;28;20044;-68
2021/12/04 06:36:08;;;;;;;147.98;44.33;;;;;;;;;;5097177;28;20043;-68
2021/12/04 06:38:37;;;;;;;177.70;47.22;;;;;;;;;;5098840;28;20073;-68
2021/12/04 06:41:05;;;;;;;174.82;50.55;;;;;;;;;;5099531;28;20332;-69
2021/12/04 06:43:33;;;;;;;165.73;48.45;;;;;;;;;;5058662;28;20048;-68
2021/12/04 06:46:02;;;;;;;181.07;51.60;;;;;;;;;;5077766;28;20048;-68
2021/12/04 06:48:37;;;;;;;162.88;55.20;;;;;;;;;;5078218;28;20021;-69
2021/12/04 06:51:31;;;;;;;209.77;62.97;;;;;;;;;;5077492;28;20029;-68
2021/12/04 06:54:19;;;;;;;197.27;60.42;;;;;;;;;;5077565;28;20425;-69
2021/12/04 06:56:42;;;;;;;199.38;60.65;;;;;;;;;;5075359;28;20047;-68
2021/12/04 06:59:13;;;;;;;221.48;72.30;;;;;;;;;;5074486;28;20032;-67
2021/12/04 07:01:41;;;;;;;206.70;68.57;;;;;;;;;;5073847;28;20024;-68
2021/12/04 07:04:09;;;;;;;189.63;57.90;;;;;;;;;;5056611;28;20052;-68
2021/12/04 07:06:36;;;;;;;181.45;57.70;;;;;;;;;;5056692;28;20036;-68
2021/12/04 07:09:06;;;;;;;183.73;61.33;;;;;;;;;;5074165;28;20037;-67
2021/12/04 07:11:33;;;;;;;197.00;61.70;;;;;;;;;;5073118;28;20025;-66
2021/12/04 07:14:01;;;;;;;194.88;61.10;;;;;;;;;;5073217;28;20063;-67
2021/12/04 07:16:29;;;;;;;179.35;57.35;;;;;;;;;;5073599;28;20028;-67
2021/12/04 07:18:56;;;;;;;171.93;56.83;;;;;;;;;;5056856;28;20029;-68
2021/12/04 07:21:25;;;;;;;183.65;60.50;;;;;;;;;;5076243;28;20058;-67
2021/12/04 07:23:53;;;;;;;172.77;57.63;;;;;;;;;;5077082;28;20060;-68
2021/12/04 07:26:20;;;;;;;175.65;58.30;;;;;;;;;;5076178;28;20437;-68
2021/12/04 07:28:50;;;;;;;183.63;63.72;;;;;;;;;;5075864;28;20020;-68
2021/12/04 07:31:19;;;;;;;183.95;63.45;;;;;;;;;;5077023;28;20024;-68
2021/12/04 07:33:46;;;;;;;186.73;60.03;;;;;;;;;;5076084;28;20120;-69
2021/12/04 07:36:14;;;;;;;242.95;91.60;;;;;;;;;;5097533;28;20080;-68
2021/12/04 07:38:41;;;;;;;184.95;62.13;;;;;;;;;;5101090;28;20492;-68
2021/12/04 07:41:10;;;;;;;191.25;61.05;;;;;;;;;;5103338;28;20032;-68
2021/12/04 07:43:37;;;;;;;197.05;58.67;;;;;;;;;;5102004;28;20043;-68
2021/12/04 07:46:05;;;;;;;195.00;57.10;;;;;;;;;;5101390;28;20439;-68
2021/12/04 07:48:33;;;;;;;188.57;60.28;;;;;;;;;;5101153;28;20024;-68
2021/12/04 07:51:02;;;;;;;205.15;61.60;;;;;;;;;;5102491;28;20055;-69
2021/12/04 07:53:30;;;;;;;206.90;62.97;;;;;;;;;;5100961;28;20099;-69
2021/12/04 07:55:56;;;;;;;182.25;64.07;;;;;;;;;;5097258;28;20035;-69
2021/12/04 07:58:24;;;;;;;186.10;62.22;;;;;;;;;;5097845;28;20028;-68
2021/12/04 08:00:51;;;;;;;194.07;63.10;;;;;;;;;;5097214;28;20024;-68
2021/12/04 08:03:19;;;;;;;184.43;61.22;;;;;;;;;;5096909;28;20028;-69
2021/12/04 08:05:49;;;;;;;184.95;62.65;;;;;;;;;;5097867;28;20032;-68
2021/12/04 08:08:16;;;;;;;197.73;64.15;;;;;;;;;;5097246;28;20036;-68
2021/12/04 08:10:44;;;;;;;193.50;61.58;;;;;;;;;;5098292;28;20077;-69
2021/12/04 08:13:11;;;;;;;197.27;62.50;;;;;;;;;;5098539;28;20491;-69
2021/12/04 08:15:39;;;;;;;181.73;60.97;;;;;;;;;;5098431;28;20073;-69
2021/12/04 08:18:07;;;;;;;208.27;66.40;;;;;;;;;;5098608;28;20035;-68
2021/12/04 08:20:36;;;;;;;186.93;62.80;;;;;;;;;;5098851;28;20021;-69
2021/12/04 08:23:04;;;;;;;194.38;62.50;;;;;;;;;;5098489;28;20020;-69
2021/12/04 08:25:33;;;;;;;218.82;85.30;;;;;;;;;;5098090;28;20020;-70
2021/12/04 08:28:02;;;;;;;196.43;63.95;;;;;;;;;;5098009;28;20024;-67
2021/12/04 08:30:34;;;;;;;189.63;69.97;;;;;;;;;;5097683;28;20020;-68
2021/12/04 08:33:01;;;;;;;191.15;67.85;;;;;;;;;;5097900;28;20016;-68
2021/12/04 08:35:35;;;;;;;194.15;67.70;;;;;;;;;;5098092;28;20019;-69
2021/12/04 08:38:02;;;;;;;179.48;63.72;;;;;;;;;;5097814;28;20360;-69
2021/12/04 08:40:30;;;;;;;182.40;62.60;;;;;;;;;;5096812;28;20019;-68
2021/12/04 08:42:57;;;;;;;184.50;65.53;;;;;;;;;;5096592;28;20051;-68
2021/12/04 08:45:25;;;;;;;175.30;56.97;;;;;;;;;;5097600;28;20732;-69
2021/12/04 08:47:53;;;;;;;187.10;61.15;;;;;;;;;;5097493;28;20043;-68
2021/12/04 08:50:23;;;;;;;159.75;57.65;;;;;;;;;;5095885;28;20051;-68
2021/12/04 08:52:50;;;;;;;184.07;57.80;;;;;;;;;;5097685;28;20048;-66
2021/12/04 08:55:18;;;;;;;162.88;52.88;;;;;;;;;;5097292;28;20035;-68
2021/12/04 08:57:46;;;;;;;160.13;49.20;;;;;;;;;;5097389;28;20047;-67
2021/12/04 09:00:19;;;;;;;169.35;52.72;;;;;;;;;;5096347;28;20060;-68
2021/12/04 09:02:47;;;;;;;162.18;53.17;;;;;;;;;;5097252;28;20035;-67
2021/12/04 09:05:15;;;;;;;180.13;57.58;;;;;;;;;;5097284;28;20075;-68
2021/12/04 09:07:43;;;;;;;153.15;54.50;;;;;;;;;;5096003;28;20027;-68
2021/12/04 09:10:11;;;;;;;159.13;53.85;;;;;;;;;;5097198;28;20020;-68
2021/12/04 09:12:40;;;;;;;158.55;54.47;;;;;;;;;;5097114;28;20023;-68
2021/12/04 09:15:10;;;;;;;171.85;59.92;;;;;;;;;;5095834;28;20028;-68
2021/12/04 09:17:38;;;;;;;195.40;54.15;;;;;;;;;;5096670;28;20027;-67
2021/12/04 09:20:07;;;;;;;159.50;52.20;;;;;;;;;;5096855;28;20032;-68
2021/12/04 09:22:36;;;;;;;148.30;49.65;;;;;;;;;;5095598;28;20421;-68
2021/12/04 09:25:11;;;;;;;152.75;51.40;;;;;;;;;;5096597;28;20388;-69
2021/12/04 10:00:10;;;;;;;156.60;46.65;;;;;;;;;;5054842;28;20032;-69
2021/12/04 10:02:58;;;;;;;146.60;43.65;;;;;;;;;;5054072;28;20057;-68
2021/12/04 10:16:33;;;;;;;123.20;41.05;;;;;;;;;;4994508;28;20323;-67
2021/12/04 10:22:01;;;;;;;136.27;41.08;;;;;;;;;;4994536;28;20030;-68
2021/12/04 10:24:45;;;;;;;131.35;41.42;;;;;;;;;;4994212;28;20135;-67
2021/12/04 10:32:55;;;;;;;120.82;41.88;;;;;;;;;;4994422;28;20114;-68
2021/12/04 10:35:23;;;;;;;143.30;46.88;;;;;;;;;;4977932;28;20045;-68
2021/12/04 10:38:03;;;;;;;135.23;45.03;;;;;;;;;;4994304;28;20335;-68
2021/12/04 10:40:38;;;;;;;152.52;46.63;;;;;;;;;;4994351;28;20027;-68
2021/12/04 10:43:10;;;;;;;130.13;43.65;;;;;;;;;;4994137;28;20066;-68
2021/12/04 10:45:46;;;;;;;133.82;43.55;;;;;;;;;;4994140;28;20427;-67
2021/12/04 10:48:18;;;;;;;143.98;47.08;;;;;;;;;;4994355;28;20033;-68
2021/12/04 10:51:18;;;;;;;149.45;47.75;;;;;;;;;;5024631;28;20091;-68
2021/12/04 10:53:45;;;;;;;148.07;50.85;;;;;;;;;;5033298;28;20383;-68
2021/12/04 10:56:26;;;;;;;139.02;50.50;;;;;;;;;;5033221;28;20117;-67
2021/12/04 11:04:26;;;;;;;150.38;50.30;;;;;;;;;;5033424;28;20036;-67
2021/12/04 11:23:46;;;;;;;138.55;47.17;;;;;;;;;;5097372;28;20509;-68
2021/12/04 11:26:37;;;;;;;167.90;55.58;;;;;;;;;;5099167;28;20028;-67
2021/12/04 11:43:15;;;;;;;184.57;66.22;;;;;;;;;;5099339;28;20027;-69
2021/12/04 11:48:40;;;;;;;193.70;78.00;;;;;;;;;;5098821;28;20059;-67
2021/12/04 11:51:12;;;;;;;195.23;79.47;;;;;;;;;;5098764;28;20028;-68
2021/12/04 11:53:39;;;;;;;203.85;79.28;;;;;;;;;;5098672;28;20024;-68
2021/12/04 11:56:12;;;;;;;201.50;80.80;;;;;;;;;;5097259;28;20040;-67
2021/12/04 11:58:45;;;;;;;224.13;81.90;;;;;;;;;;5097821;28;20024;-68
2021/12/04 12:01:33;;;;;;;223.23;86.10;;;;;;;;;;5098546;28;20089;-68
2021/12/04 12:04:04;;;;;;;223.70;83.57;;;;;;;;;;5097419;28;20034;-65
2021/12/04 12:06:44;;;;;;;221.13;81.18;;;;;;;;;;5098315;28;20076;-66
2021/12/04 12:09:15;;;;;;;221.95;81.55;;;;;;;;;;5098729;28;20376;-66
2021/12/04 12:11:57;;;;;;;233.43;88.78;;;;;;;;;;5098357;28;20016;-66
2021/12/04 12:14:37;;;;;;;217.15;83.97;;;;;;;;;;5098232;28;20016;-66
2021/12/04 12:17:06;;;;;;;216.75;82.28;;;;;;;;;;5098148;28;20058;-67
2021/12/04 12:19:40;;;;;;;215.57;82.72;;;;;;;;;;5097244;28;20084;-68
2021/12/04 12:22:23;;;;;;;234.10;85.70;;;;;;;;;;5098259;28;20031;-68
2021/12/04 12:38:46;;;;;;;196.05;72.75;;;;;;;;;;5098304;28;20043;-66
2021/12/04 12:41:31;;;;;;;223.50;77.78;;;;;;;;;;5098720;28;20069;-66
2021/12/04 12:44:12;;;;;;;232.73;80.07;;;;;;;;;;5098790;28;20030;-66
2021/12/04 12:46:49;;;;;;;220.27;79.45;;;;;;;;;;5098623;28;20030;-66
2021/12/04 12:49:23;;;;;;;254.13;82.43;;;;;;;;;;5099753;28;20043;-66
2021/12/04 12:52:08;;;;;;;230.13;79.35;;;;;;;;;;5097099;28;20079;-67
2021/12/04 12:54:44;;;;;;;266.73;90.45;;;;;;;;;;5098016;28;20024;-66
2021/12/04 12:57:20;;;;;;;219.85;77.47;;;;;;;;;;5097410;28;20055;-65
2021/12/04 13:13:55;;;;;;;227.13;77.72;;;;;;;;;;5097556;28;20077;-66
2021/12/04 13:16:28;;;;;;;237.73;83.50;;;;;;;;;;5096999;28;20024;-66
2021/12/04 13:18:58;;;;;;;240.88;82.05;;;;;;;;;;5097093;28;20080;-67
2021/12/04 13:21:27;;;;;;;233.25;80.90;;;;;;;;;;5096912;28;20024;-66
2021/12/04 13:23:56;;;;;;;225.70;82.60;;;;;;;;;;5097056;28;20028;-67
2021/12/04 13:26:28;;;;;;;257.30;91.53;;;;;;;;;;5096829;28;20077;-66
2021/12/04 13:28:59;;;;;;;274.98;97.50;;;;;;;;;;5096938;28;20024;-65
2021/12/04 13:31:27;;;;;;;290.35;100.72;;;;;;;;;;5096930;28;20095;-67
2021/12/04 13:33:56;;;;;;;277.45;97.32;;;;;;;;;;5096774;28;20020;-67
2021/12/04 13:36:28;;;;;;;301.27;103.60;;;;;;;;;;5095553;28;20031;-66
2021/12/04 13:39:21;;;;;;;294.75;108.20;;;;;;;;;;5096840;28;20027;-67
2021/12/04 13:41:51;;;;;;;283.15;105.30;;;;;;;;;;5092121;28;20036;-67
2021/12/04 13:44:20;;;;;;;313.52;110.03;;;;;;;;;;5096657;28;20055;-66
2021/12/04 13:46:52;;;;;;;333.25;116.97;;;;;;;;;;5095185;28;20111;-66
2021/12/04 13:49:22;;;;;;;326.42;117.35;;;;;;;;;;5096371;28;20016;-66
2021/12/04 13:51:54;;;;;;;347.30;126.82;;;;;;;;;;5095284;28;20036;-66
2021/12/04 13:54:22;;;;;;;334.23;112.60;;;;;;;;;;5095435;28;20024;-66
2021/12/04 13:56:48;;;;;;;275.77;95.35;;;;;;;;;;5096288;28;20072;-67
2021/12/04 13:59:21;;;;;;;282.73;93.03;;;;;;;;;;5095360;28;20028;-66
2021/12/04 14:01:49;;;;;;;263.58;93.40;;;;;;;;;;5096403;28;20072;-66
2021/12/04 14:04:16;;;;;;;262.88;101.28;;;;;;;;;;5096413;28;20024;-66
2021/12/04 14:06:56;;;;;;;284.98;102.50;;;;;;;;;;5096342;28;20036;-66
2021/12/04 14:09:30;;;;;;;306.95;101.03;;;;;;;;;;5095252;28;20024;-66
2021/12/04 14:12:00;;;;;;;300.92;107.05;;;;;;;;;;5095057;28;20028;-66
2021/12/04 14:14:29;;;;;;;277.00;109.10;;;;;;;;;;5096249;28;20028;-66
2021/12/04 14:17:04;;;;;;;356.45;142.85;;;;;;;;;;5094994;28;20035;-67
2021/12/04 14:19:32;;;;;;;421.63;160.90;;;;;;;;;;5096114;28;20451;-66
2021/12/04 14:22:03;;;;;;;414.88;171.80;;;;;;;;;;5096165;28;20034;-66
2021/12/04 14:24:32;;;;;;;534.08;229.80;;;;;;;;;;5096105;28;20127;-67
2021/12/04 14:27:04;;;;;;;544.08;231.52;;;;;;;;;;5096118;28;20051;-67
2021/12/04 14:29:39;;;;;;;676.25;266.90;;;;;;;;;;5096005;28;20016;-65
2021/12/04 14:32:07;;;;;;;642.55;252.15;;;;;;;;;;5095939;28;20031;-66
2021/12/04 14:34:34;;;;;;;653.58;248.48;;;;;;;;;;5096013;28;20024;-66
2021/12/04 14:37:16;;;;;;;650.55;244.50;;;;;;;;;;5095861;28;20024;-66
2021/12/04 14:39:45;;;;;;;595.90;235.27;;;;;;;;;;5094579;28;20028;-66
2021/12/04 14:42:18;;;;;;;627.83;243.80;;;;;;;;;;5094420;28;20106;-68
2021/12/04 14:45:09;;;;;;;550.50;196.52;;;;;;;;;;5094333;28;20123;-65
2021/12/04 14:47:43;;;;;;;548.20;195.23;;;;;;;;;;5084518;28;20036;-66
2021/12/04 14:50:11;;;;;;;503.13;181.35;;;;;;;;;;5099880;28;20440;-66
2021/12/04 14:52:42;;;;;;;535.58;181.82;;;;;;;;;;5100074;28;20020;-66
2021/12/04 14:55:22;;;;;;;483.45;171.85;;;;;;;;;;5098783;28;20020;-68
2021/12/04 14:57:50;;;;;;;458.38;154.90;;;;;;;;;;5099525;28;20129;-67
2021/12/04 15:00:24;;;;;;;457.92;158.15;;;;;;;;;;5099793;28;20439;-67
2021/12/04 15:03:02;;;;;;;572.97;174.07;;;;;;;;;;5100181;28;20032;-67
2021/12/04 15:05:35;;;;;;;528.67;172.30;;;;;;;;;;5098367;28;20020;-67
2021/12/04 15:08:12;;;;;;;564.53;175.20;;;;;;;;;;5099763;28;20020;-68
2021/12/04 15:10:40;;;;;;;471.33;153.57;;;;;;;;;;5098293;28;20020;-68
2021/12/04 15:13:17;;;;;;;452.27;147.25;;;;;;;;;;5098373;28;20119;-69
2021/12/04 15:15:45;;;;;;;465.50;154.95;;;;;;;;;;5099612;28;20020;-68
2021/12/04 15:18:14;;;;;;;524.45;159.10;;;;;;;;;;5098371;28;20028;-68
2021/12/04 15:20:53;;;;;;;622.00;182.05;;;;;;;;;;5099977;28;20020;-68
2021/12/04 15:23:22;;;;;;;566.83;178.13;;;;;;;;;;5098991;28;20425;-68
2021/12/04 15:25:52;;;;;;;500.90;158.63;;;;;;;;;;5100421;28;20066;-69
2021/12/04 15:28:22;;;;;;;526.67;168.55;;;;;;;;;;5099877;28;20016;-68
2021/12/04 15:30:51;;;;;;;394.90;137.27;;;;;;;;;;5098839;28;20020;-69
2021/12/04 15:33:27;;;;;;;262.88;97.63;;;;;;;;;;5100169;28;20027;-69
2021/12/04 15:35:56;;;;;;;255.82;96.47;;;;;;;;;;5098903;28;20028;-69
2021/12/04 15:38:36;;;;;;;327.17;114.57;;;;;;;;;;5099760;28;20028;-70
2021/12/04 15:41:12;;;;;;;320.98;110.45;;;;;;;;;;5099691;28;20020;-69
2021/12/04 15:43:58;;;;;;;246.20;101.05;;;;;;;;;;5099228;28;20028;-69
2021/12/04 15:46:45;;;;;;;257.92;97.15;;;;;;;;;;5099280;28;20020;-71
2021/12/04 15:54:16;;;;;;;296.45;102.20;;;;;;;;;;5098973;28;20027;-71
2021/12/04 15:56:46;;;;;;;450.33;123.88;;;;;;;;;;5097456;28;20040;-69
2021/12/04 15:59:17;;;;;;;468.23;149.10;;;;;;;;;;5096785;28;20059;-69
2021/12/04 16:01:45;;;;;;;379.90;141.50;;;;;;;;;;5098493;28;20473;-67
2021/12/04 16:04:39;;;;;;;362.10;135.93;;;;;;;;;;5098977;28;20031;-70
2021/12/04 16:07:07;;;;;;;418.60;137.30;;;;;;;;;;5095891;28;20063;-69
2021/12/04 16:09:41;;;;;;;813.47;193.68;;;;;;;;;;5098902;28;20077;-68
2021/12/04 16:12:13;;;;;;;463.25;141.30;;;;;;;;;;5098354;28;20099;-71
2021/12/04 16:14:43;;;;;;;287.92;104.93;;;;;;;;;;5098235;28;20020;-69
2021/12/04 16:17:12;;;;;;;326.23;117.15;;;;;;;;;;5098422;28;20050;-70
2021/12/04 16:19:43;;;;;;;448.20;143.60;;;;;;;;;;5097267;28;20028;-68
2021/12/04 16:22:13;;;;;;;606.40;166.48;;;;;;;;;;5076080;28;20036;-69
2021/12/04 16:24:43;;;;;;;438.92;130.98;;;;;;;;;;5076037;28;20343;-69
2021/12/04 16:27:26;;;;;;;497.95;147.18;;;;;;;;;;5075871;28;20025;-69
2021/12/04 16:29:58;;;;;;;322.25;116.15;;;;;;;;;;5076149;28;20042;-69
2021/12/04 16:35:13;;;;;;;244.25;92.20;;;;;;;;;;5076024;28;20114;-72
2021/12/04 16:37:45;;;;;;;329.83;98.03;;;;;;;;;;5076248;28;20067;-74
2021/12/04 16:40:16;;;;;;;222.90;83.55;;;;;;;;;;5076272;28;20032;-72
2021/12/04 16:42:44;;;;;;;277.60;86.90;;;;;;;;;;5059595;28;20080;-71
2021/12/04 16:45:14;;;;;;;224.90;86.20;;;;;;;;;;5076286;28;20437;-71
2021/12/04 16:47:44;;;;;;;214.65;85.70;;;;;;;;;;5076072;28;20032;-72
2021/12/04 16:50:16;;;;;;;247.98;87.43;;;;;;;;;;5058796;28;20031;-69
2021/12/04 16:56:04;;;;;;;302.05;100.38;;;;;;;;;;5035192;28;20026;-75
2021/12/04 16:58:32;;;;;;;310.45;100.75;;;;;;;;;;5035822;28;20033;-70
2021/12/04 17:01:01;;;;;;;247.15;88.78;;;;;;;;;;5018845;28;20026;-71
2021/12/04 17:03:29;;;;;;;274.40;102.53;;;;;;;;;;5018857;28;20041;-70
2021/12/04 17:05:56;;;;;;;426.50;115.53;;;;;;;;;;5035506;28;20029;-73
2021/12/04 17:08:25;;;;;;;299.98;103.80;;;;;;;;;;5035659;28;20100;-71
2021/12/04 17:10:53;;;;;;;358.38;110.60;;;;;;;;;;5035276;28;20043;-69
2021/12/04 17:13:20;;;;;;;347.42;126.53;;;;;;;;;;5053130;28;20033;-71
2021/12/04 17:15:49;;;;;;;308.38;115.78;;;;;;;;;;5055226;28;20029;-73
2021/12/04 17:18:19;;;;;;;368.35;130.13;;;;;;;;;;5055305;28;20338;-71
2021/12/04 17:20:48;;;;;;;272.35;106.15;;;;;;;;;;5039155;28;20071;-76
2021/12/04 17:23:17;;;;;;;405.52;120.05;;;;;;;;;;5039120;28;20037;-73
2021/12/04 17:25:44;;;;;;;402.00;127.47;;;;;;;;;;5055753;28;20024;-75
2021/12/04 17:28:14;;;;;;;293.88;113.10;;;;;;;;;;5039375;28;20033;-74
2021/12/04 17:30:43;;;;;;;287.38;111.68;;;;;;;;;;5075580;28;20033;-72
2021/12/04 17:33:12;;;;;;;336.98;116.90;;;;;;;;;;5076631;28;20028;-73
2021/12/04 17:35:40;;;;;;;396.17;134.32;;;;;;;;;;5078557;28;20044;-69